Rock Spring, GA (30739)

12:42 PM EDT on July 29, 2016 (GMT -0400)
| | Change Station

Elev -9999 ft 0.00 °N, 0.00 °E | Updated

Mostly Cloudy
Mostly Cloudy
85 °F
Feels Like 88 °F
N
7
Wind Variable Wind from WSW
Gusts mph

Today
High -- | Low -- °F
--% Chance of Precip.
Yesterday
High -- | Low -- °F
Precip. -- in
Pressure 29.99 in
Visibility 10.0 miles
Clouds Scattered Clouds 3200 ft
Mostly Cloudy 4500 ft
Mostly Cloudy 9000 ft
Heat Index 88 °F
Dew Point 70 °F
Humidity 61%
Rainfall --
Snow Depth Not available.
6:48 AM 8:45 PM
Waning Crescent, 21% visible
METAR KCHA 291553Z 23007KT 10SM SCT032 BKN045 BKN090 29/20 A3002 RMK AO2 SLP156 T02890200 $
Pressure 29.99 in
Visibility 10.0 miles
Clouds Scattered Clouds 3200 ft
Mostly Cloudy 4500 ft
Mostly Cloudy 9000 ft
Heat Index 88 °F
Dew Point 70 °F
Humidity 61%
Rainfall --
Snow Depth Not available.
6:48 AM 8:45 PM
Waning Crescent, 21% visible
METAR KCHA 291553Z 23007KT 10SM SCT032 BKN045 BKN090 29/20 A3002 RMK AO2 SLP156 T02890200 $

10-Day Weather Forecast

Almanac

Astronomy

Jul. 29, 2016 Rise Set
Actual Time
Civil Twilight
Nautical Twilight
Astronomical Twilight
Moon
Length of Visible Light
Length of Day
Tomorrow will be .
, % of the Moon is Illuminated

Today's Extremes

State Highs State Lows

Community

WunderPhotos

Upload Photos

1,928,378 photos uploaded!

WunderBlog® & News

Nearby

Air Quality

  Air Quality AQ Index Pollutant
Not available.

Snow Depth

Station Depth Elevation

Earthquake Activity

City Distance Mag. Time & Date
Minimum magnitude displayed is 2.5.

Coastal Water Temperatures

Place Temperature

Stations

Nearby Weather Stations

Station Location Temp. Windchill Dew Point Humidity Wind Precip. Elev Updated Type
                   

Watches & Warnings

There are currently no watches in effect.